createdAt,value
2019-04-11T00:00:45.853Z,0.83
2019-04-11T00:03:15.916Z,0.87
2019-04-11T00:05:45.912Z,0.87
2019-04-11T00:08:15.876Z,0.93
2019-04-11T00:10:46.841Z,0.93
2019-04-11T00:13:23.392Z,0.94
2019-04-11T00:15:48.869Z,0.92
2019-04-11T00:18:18.867Z,0.89
2019-04-11T00:20:48.874Z,0.77
2019-04-11T00:23:18.842Z,0.63
2019-04-11T00:25:49.598Z,0.49
2019-04-11T00:28:19.689Z,0.45
2019-04-11T00:30:50.463Z,0.42
2019-04-11T00:33:20.523Z,0.40
2019-04-11T00:35:50.526Z,0.35
2019-04-11T00:38:21.445Z,0.34
2019-04-11T00:40:51.463Z,0.31
2019-04-11T00:43:30.440Z,0.27
2019-04-11T00:45:54.056Z,0.27
2019-04-11T00:48:24.176Z,0.23
2019-04-11T00:50:54.176Z,0.25
2019-04-11T00:53:24.350Z,0.28
2019-04-11T00:55:54.345Z,0.36
2019-04-11T00:58:24.319Z,0.37
2019-04-11T01:00:55.540Z,0.36
2019-04-11T01:03:26.419Z,0.32
2019-04-11T01:05:56.740Z,0.27
2019-04-11T01:08:27.356Z,0.25
2019-04-11T01:10:57.557Z,0.20
2019-04-11T01:13:39.125Z,0.21
2019-04-11T01:16:00.797Z,0.19
2019-04-11T01:18:30.946Z,0.18
2019-04-11T01:21:02.016Z,0.12
2019-04-11T01:23:33.199Z,0.09
2019-04-11T01:26:03.377Z,0.16
2019-04-11T01:28:34.393Z,0.20
2019-04-11T01:31:06.186Z,0.18
2019-04-11T01:33:36.138Z,0.19
2019-04-11T01:36:07.018Z,0.22
2019-04-11T01:38:38.741Z,0.23
2019-04-11T01:41:09.967Z,0.19
2019-04-11T01:43:52.146Z,0.09
2019-04-11T01:46:11.889Z,0.03
2019-04-11T01:48:43.855Z,0.09
2019-04-11T01:51:13.869Z,0.17
2019-04-11T01:53:43.839Z,0.23
2019-04-11T01:56:14.851Z,0.22
2019-04-11T01:58:44.856Z,0.27
2019-04-11T02:01:16.806Z,0.24
2019-04-11T02:03:55.279Z,0.22
2019-04-11T02:06:25.782Z,0.24
2019-04-11T02:08:55.788Z,0.17
2019-04-11T02:11:25.791Z,0.13
2019-04-11T02:14:05.144Z,0.08
2019-04-11T02:16:27.550Z,0.15
2019-04-11T02:18:57.519Z,0.09
2019-04-11T02:21:27.916Z,0.04
2019-04-11T02:24:11.919Z,0.06
2019-04-11T02:26:46.537Z,-0.02
2019-04-11T02:29:15.387Z,-0.03
2019-04-11T02:31:46.716Z,-0.09
2019-04-11T02:34:17.244Z,-0.12
2019-04-11T02:36:48.925Z,-0.14
2019-04-11T02:39:20.267Z,-0.16
2019-04-11T02:41:52.705Z,-0.18
2019-04-11T02:44:46.070Z,-0.13
2019-04-11T02:47:01.830Z,-0.09
2019-04-11T02:49:27.782Z,-0.02
2019-04-11T02:51:58.622Z,0.04
2019-04-11T02:54:30.537Z,0.06
2019-04-11T02:57:02.575Z,0.02
2019-04-11T02:59:34.374Z,0.06
2019-04-11T03:02:06.828Z,0.08
2019-04-11T03:04:37.105Z,0.09
2019-04-11T03:07:08.042Z,0.06
2019-04-11T03:09:39.321Z,0.08
2019-04-11T03:12:11.494Z,0.09
2019-04-11T03:15:01.058Z,0.07
2019-04-11T03:17:20.676Z,0.03
2019-04-11T03:19:59.464Z,0.06
2019-04-11T03:22:18.198Z,0.05
2019-04-11T03:24:49.201Z,0.08
2019-04-11T03:27:20.168Z,-0.03
2019-04-11T03:29:52.133Z,-0.09
2019-04-11T03:33:25.465Z,-0.15
2019-04-11T03:37:59.647Z,-0.39
2019-04-11T03:40:27.097Z,-0.42
2019-04-11T03:42:52.381Z,-0.47
2019-04-11T03:45:33.258Z,-0.47
2019-04-11T03:47:57.670Z,-0.57
2019-04-11T03:50:16.530Z,-0.57
2019-04-11T03:52:45.039Z,-0.57
2019-04-11T03:55:15.726Z,-0.57
2019-04-11T03:57:47.026Z,-0.57
2019-04-11T04:00:19.200Z,-0.57
2019-04-11T04:02:49.623Z,-0.58
2019-04-11T04:05:21.664Z,-0.57
2019-04-11T04:07:52.943Z,-0.57
2019-04-11T04:10:25.741Z,-0.53
2019-04-11T04:12:58.049Z,-0.50
2019-04-11T04:15:52.005Z,-0.49
2019-04-11T04:18:21.343Z,-0.49
2019-04-11T04:20:53.364Z,-0.44
2019-04-11T04:23:25.051Z,-0.39
2019-04-11T04:25:55.400Z,-0.12
2019-04-11T04:28:27.097Z,-0.08
2019-04-11T04:30:57.983Z,-0.02
2019-04-11T04:33:29.332Z,0.08
2019-04-11T04:36:02.133Z,-0.09
2019-04-11T04:38:33.834Z,-0.11
2019-04-11T04:41:16.917Z,-0.11
2019-04-11T04:43:36.695Z,-0.10
2019-04-11T04:46:25.055Z,-0.04
2019-04-11T04:48:40.380Z,0.07
2019-04-11T04:51:12.143Z,0.66
2019-04-11T04:53:43.042Z,0.46
2019-04-11T04:56:13.860Z,0.25
2019-04-11T04:58:46.632Z,0.22
2019-04-11T05:01:17.160Z,0.39
2019-04-11T05:03:48.826Z,0.51
2019-04-11T05:06:20.700Z,0.31
2019-04-11T05:08:51.407Z,0.44
2019-04-11T05:11:23.129Z,0.41
2019-04-11T05:13:54.518Z,0.48
2019-04-11T05:16:24.685Z,0.47
2019-04-11T05:18:54.831Z,0.49
2019-04-11T05:21:25.445Z,0.53
2019-04-11T05:23:56.651Z,0.60
2019-04-11T05:26:27.863Z,0.68
2019-04-11T05:28:57.915Z,0.90
2019-04-11T05:31:27.877Z,1.07
2019-04-11T05:33:57.900Z,0.96
2019-04-11T05:36:30.427Z,1.11
2019-04-11T05:39:00.580Z,1.17
2019-04-11T05:41:31.451Z,1.31
2019-04-11T05:44:03.137Z,1.51
2019-04-11T05:46:45.437Z,1.54
2019-04-11T05:49:21.174Z,1.51
2019-04-11T05:52:04.206Z,1.65
2019-04-11T05:54:47.972Z,1.71
2019-04-11T05:57:21.288Z,1.96
2019-04-11T05:59:50.931Z,2.01
2019-04-11T06:02:27.509Z,1.96
2019-04-11T06:05:00.416Z,2.08
2019-04-11T06:07:32.762Z,2.10
2019-04-11T06:10:13.269Z,2.14
2019-04-11T06:12:52.633Z,2.34
2019-04-11T06:15:25.022Z,2.32
2019-04-11T06:17:55.138Z,2.53
2019-04-11T06:20:43.223Z,2.78
2019-04-11T06:23:21.401Z,2.76
2019-04-11T06:25:55.752Z,2.81
2019-04-11T06:28:28.519Z,3.02
2019-04-11T06:31:18.115Z,3.18
2019-04-11T06:33:56.624Z,3.13
2019-04-11T06:36:45.269Z,3.08
2019-04-11T06:39:35.589Z,3.36
2019-04-11T06:42:07.631Z,3.52
2019-04-11T06:44:39.749Z,3.71
2019-04-11T06:47:27.376Z,3.79
2019-04-11T06:50:15.571Z,4.07
2019-04-11T06:52:46.480Z,3.93
2019-04-11T06:55:21.143Z,3.71
2019-04-11T06:58:02.760Z,3.82
2019-04-11T07:00:33.574Z,4.05
2019-04-11T07:03:09.283Z,4.07
2019-04-11T07:05:38.745Z,4.35
2019-04-11T07:08:09.607Z,4.17
2019-04-11T07:10:44.719Z,4.73
2019-04-11T07:13:25.339Z,4.90
2019-04-11T07:15:55.336Z,5.21
2019-04-11T07:18:46.395Z,4.79
2019-04-11T07:21:17.079Z,5.20
2019-04-11T07:24:05.354Z,5.12
2019-04-11T07:26:37.363Z,5.31
2019-04-11T07:29:25.806Z,5.16
2019-04-11T07:32:07.096Z,5.13
2019-04-11T07:34:52.403Z,5.07
2019-04-11T07:37:33.641Z,5.04
2019-04-11T07:40:15.547Z,5.20
2019-04-11T07:42:52.095Z,5.31
2019-04-11T07:45:40.225Z,5.20
2019-04-11T07:48:12.855Z,5.21
2019-04-11T07:50:44.310Z,4.97
2019-04-11T07:53:15.988Z,5.25
2019-04-11T07:55:46.682Z,5.16
2019-04-11T07:58:19.346Z,5.40
2019-04-11T08:01:08.270Z,5.18
2019-04-11T08:03:49.260Z,5.17
2019-04-11T08:06:30.984Z,5.42
2019-04-11T08:09:17.719Z,5.21
2019-04-11T08:11:49.833Z,5.33
2019-04-11T08:14:40.349Z,5.45
2019-04-11T08:17:11.975Z,5.42
2019-04-11T08:19:59.677Z,5.14
2019-04-11T08:22:37.374Z,5.40
2019-04-11T08:25:25.135Z,5.72
2019-04-11T08:28:04.901Z,5.40
2019-04-11T08:30:36.862Z,5.62
2019-04-11T08:33:09.102Z,5.44
2019-04-11T08:35:51.410Z,5.56
2019-04-11T08:38:24.699Z,5.65
2019-04-11T08:41:03.096Z,5.98
2019-04-11T08:43:35.280Z,6.09
2019-04-11T08:46:12.925Z,6.40
2019-04-11T08:48:45.635Z,6.50
2019-04-11T08:51:19.049Z,6.51
2019-04-11T08:54:07.277Z,6.92
2019-04-11T08:56:39.122Z,6.92
2019-04-11T08:59:38.343Z,6.98
2019-04-11T09:02:08.898Z,6.51
2019-04-11T09:05:04.469Z,6.33
2019-04-11T09:07:29.834Z,6.43
2019-04-11T09:10:17.937Z,6.15
2019-04-11T09:12:50.880Z,6.08
2019-04-11T09:15:22.596Z,6.00
2019-04-11T09:18:02.053Z,6.09
2019-04-11T09:20:40.143Z,6.13
2019-04-11T09:23:11.354Z,6.26
2019-04-11T09:26:01.706Z,5.86
2019-04-11T09:28:36.053Z,5.84
2019-04-11T09:31:10.553Z,5.94
2019-04-11T09:33:57.717Z,5.90
2019-04-11T09:36:38.802Z,5.90
2019-04-11T09:39:19.152Z,6.11
2019-04-11T09:42:03.107Z,6.09
2019-04-11T09:44:49.841Z,6.36
2019-04-11T09:47:22.142Z,6.51
2019-04-11T09:50:00.073Z,6.55
2019-04-11T09:52:43.681Z,6.48
2019-04-11T09:55:31.460Z,6.68
2019-04-11T09:58:02.936Z,6.80
2019-04-11T10:00:34.824Z,6.76
2019-04-11T10:03:06.725Z,6.67
2019-04-11T10:05:44.819Z,6.48
2019-04-11T10:08:22.553Z,6.26
2019-04-11T10:11:10.104Z,6.18
2019-04-11T10:13:44.939Z,6.34
2019-04-11T10:16:17.887Z,6.49
2019-04-11T10:19:05.853Z,6.50
2019-04-11T10:21:37.560Z,6.20
2019-04-11T10:24:18.925Z,6.11
2019-04-11T10:26:52.027Z,6.05
2019-04-11T10:29:40.024Z,6.14
2019-04-11T10:32:11.793Z,6.11
2019-04-11T10:34:46.577Z,6.27
2019-04-11T10:37:18.129Z,6.50
2019-04-11T10:39:53.560Z,6.44
2019-04-11T10:42:24.927Z,6.55
2019-04-11T10:45:12.651Z,6.55
2019-04-11T10:47:42.595Z,6.49
2019-04-11T10:50:23.703Z,6.65
2019-04-11T10:52:55.520Z,6.75
2019-04-11T10:55:29.816Z,6.89
2019-04-11T10:58:10.912Z,7.01
2019-04-11T11:00:57.761Z,6.92
2019-04-11T11:03:30.596Z,6.74
2019-04-11T11:06:08.390Z,6.83
2019-04-11T11:08:43.768Z,6.98
2019-04-11T11:11:16.428Z,6.76
2019-04-11T11:14:06.683Z,6.86
2019-04-11T11:16:41.934Z,6.96
2019-04-11T11:19:37.210Z,6.89
2019-04-11T11:21:47.656Z,7.01
2019-04-11T11:24:39.109Z,6.97
2019-04-11T11:27:07.429Z,6.77
2019-04-11T11:29:58.144Z,6.83
2019-04-11T11:32:29.373Z,7.01
2019-04-11T11:35:01.209Z,6.81
2019-04-11T11:37:35.713Z,6.74
2019-04-11T11:40:13.795Z,6.60
2019-04-11T11:42:52.608Z,6.48
2019-04-11T11:45:29.979Z,6.66
2019-04-11T11:48:19.195Z,6.57
2019-04-11T11:50:51.400Z,6.79
2019-04-11T11:53:28.331Z,6.79
2019-04-11T11:56:00.123Z,6.87
2019-04-11T11:58:31.665Z,7.03
2019-04-11T12:01:05.841Z,6.91
2019-04-11T12:03:40.754Z,6.88
2019-04-11T12:06:10.909Z,6.85
2019-04-11T12:09:00.235Z,6.89
2019-04-11T12:11:30.380Z,6.71
2019-04-11T12:14:18.355Z,6.74
2019-04-11T12:16:59.523Z,6.61
2019-04-11T12:19:26.881Z,6.69
2019-04-11T12:21:58.440Z,6.54
2019-04-11T12:24:42.947Z,6.49
2019-04-11T12:27:18.450Z,6.65
2019-04-11T12:29:51.906Z,6.79
2019-04-11T12:32:30.552Z,7.06
2019-04-11T12:35:08.267Z,6.97
2019-04-11T12:37:43.357Z,7.10
2019-04-11T12:40:31.645Z,7.10
2019-04-11T12:43:03.183Z,7.04
2019-04-11T12:45:34.737Z,6.83
2019-04-11T12:48:04.699Z,6.87
2019-04-11T12:50:42.129Z,6.86
2019-04-11T12:53:12.108Z,6.73
2019-04-11T12:55:52.469Z,6.83
2019-04-11T12:58:27.184Z,6.81
2019-04-11T13:00:58.743Z,6.72
2019-04-11T13:03:46.798Z,6.48
2019-04-11T13:06:18.480Z,6.42
2019-04-11T13:08:52.734Z,6.38
2019-04-11T13:11:24.717Z,6.43
2019-04-11T13:13:58.983Z,6.43
2019-04-11T13:16:28.935Z,6.48
2019-04-11T13:19:03.484Z,6.70
2019-04-11T13:21:35.076Z,6.63
2019-04-11T13:24:09.257Z,6.62
2019-04-11T13:26:57.168Z,6.52
2019-04-11T13:29:31.924Z,6.64
2019-04-11T13:32:20.063Z,6.70
2019-04-11T13:35:08.077Z,6.49
2019-04-11T13:37:56.048Z,6.40
2019-04-11T13:40:30.672Z,6.33
2019-04-11T13:43:02.245Z,6.52
2019-04-11T13:45:33.787Z,6.60
2019-04-11T13:48:21.738Z,6.62
2019-04-11T13:50:53.291Z,6.52
2019-04-11T13:53:43.421Z,6.46
2019-04-11T13:56:13.873Z,6.43
2019-04-11T13:59:01.553Z,6.38
2019-04-11T14:01:32.026Z,6.35
2019-04-11T14:04:07.903Z,6.37
2019-04-11T14:06:35.356Z,6.45
2019-04-11T14:09:15.036Z,6.63
2019-04-11T14:11:46.697Z,6.62
2019-04-11T14:14:21.202Z,6.71
2019-04-11T14:16:52.741Z,6.62
2019-04-11T14:19:27.035Z,6.53
2019-04-11T14:21:56.992Z,6.55
2019-04-11T14:24:31.454Z,6.55
2019-04-11T14:27:02.980Z,6.61
2019-04-11T14:29:40.942Z,6.46
2019-04-11T14:32:24.668Z,6.53
2019-04-11T14:34:59.081Z,6.57
2019-04-11T14:37:38.249Z,6.43
2019-04-11T14:40:12.810Z,6.39
2019-04-11T14:42:53.145Z,6.34
2019-04-11T14:45:27.420Z,6.22
2019-04-11T14:48:14.042Z,6.32
2019-04-11T14:50:49.013Z,6.40
2019-04-11T14:53:26.382Z,6.34
2019-04-11T14:55:57.944Z,6.33
2019-04-11T14:58:30.527Z,6.38
2019-04-11T15:01:00.983Z,6.34
2019-04-11T15:03:32.517Z,6.28
2019-04-11T15:06:09.979Z,6.18
2019-04-11T15:08:41.511Z,6.25
2019-04-11T15:11:31.454Z,6.06
2019-04-11T15:14:05.767Z,6.11
2019-04-11T15:16:37.343Z,6.20
2019-04-11T15:19:07.311Z,6.03
2019-04-11T15:21:54.967Z,6.04
2019-04-11T15:24:24.934Z,6.02
2019-04-11T15:26:56.472Z,6.09
2019-04-11T15:29:28.004Z,6.01
2019-04-11T15:32:01.960Z,5.88
2019-04-11T15:34:38.366Z,5.93
2019-04-11T15:37:18.539Z,5.87
2019-04-11T15:39:50.072Z,5.87
2019-04-11T15:42:24.480Z,5.94
2019-04-11T15:44:56.012Z,6.05
2019-04-11T15:47:27.013Z,6.12
2019-04-11T15:50:07.723Z,5.99
2019-04-11T15:52:39.261Z,5.92
2019-04-11T15:55:19.722Z,5.86
2019-04-11T15:57:49.716Z,5.76
2019-04-11T16:00:27.232Z,5.77
2019-04-11T16:03:01.870Z,5.73
2019-04-11T16:05:49.864Z,5.82
2019-04-11T16:08:27.626Z,5.77
2019-04-11T16:11:15.447Z,5.83
2019-04-11T16:14:06.040Z,5.74
2019-04-11T16:16:43.814Z,5.58
2019-04-11T16:19:21.623Z,5.55
2019-04-11T16:22:09.458Z,5.53
2019-04-11T16:24:41.128Z,5.45
2019-04-11T16:27:25.099Z,5.40
2019-04-11T16:30:11.873Z,5.31
2019-04-11T16:32:43.415Z,5.35
2019-04-11T16:35:20.734Z,5.35
2019-04-11T16:38:00.581Z,5.41
2019-04-11T16:40:44.753Z,5.42
2019-04-11T16:43:14.721Z,5.40
2019-04-11T16:45:54.594Z,5.28
2019-04-11T16:48:25.691Z,5.25
2019-04-11T16:50:55.837Z,5.22
2019-04-11T16:53:25.848Z,5.19
2019-04-11T16:55:55.823Z,5.24
2019-04-11T16:58:25.797Z,5.27
2019-04-11T17:00:55.800Z,5.14
2019-04-11T17:03:25.815Z,5.12
2019-04-11T17:06:09.346Z,5.12
2019-04-11T17:08:40.875Z,5.14
2019-04-11T17:11:12.441Z,5.09
2019-04-11T17:13:42.403Z,5.12
2019-04-11T17:16:13.400Z,5.11
2019-04-11T17:18:43.366Z,5.13
2019-04-11T17:21:13.342Z,5.11
2019-04-11T17:23:46.780Z,5.01
2019-04-11T17:26:14.972Z,5.00
2019-04-11T17:28:45.035Z,4.90
2019-04-11T17:31:14.980Z,4.93
2019-04-11T17:33:44.945Z,4.92
2019-04-11T17:36:14.979Z,4.81
2019-04-11T17:38:44.946Z,4.81
2019-04-11T17:41:14.877Z,4.81
2019-04-11T17:43:47.024Z,4.87
2019-04-11T17:46:16.507Z,4.92
2019-04-11T17:48:46.492Z,4.86
2019-04-11T17:51:16.462Z,4.86
2019-04-11T17:53:46.434Z,4.89
2019-04-11T17:56:16.409Z,4.87
2019-04-11T17:58:46.387Z,4.83
2019-04-11T18:01:16.363Z,4.84
2019-04-11T18:03:46.435Z,4.73
2019-04-11T18:06:17.202Z,4.73
2019-04-11T18:08:51.316Z,4.72
2019-04-11T18:11:20.408Z,4.79
2019-04-11T18:13:50.370Z,4.77
2019-04-11T18:16:20.440Z,4.70
2019-04-11T18:18:50.414Z,4.77
2019-04-11T18:21:20.380Z,4.80
2019-04-11T18:23:50.691Z,4.77
2019-04-11T18:26:21.502Z,4.69
2019-04-11T18:28:52.646Z,4.70
2019-04-11T18:31:24.755Z,4.61
2019-04-11T18:33:54.338Z,4.57
2019-04-11T18:36:24.309Z,4.62
2019-04-11T18:38:54.269Z,4.63
2019-04-11T18:41:24.235Z,4.61
2019-04-11T18:43:54.210Z,4.60
2019-04-11T18:46:24.278Z,4.58
2019-04-11T18:48:54.549Z,4.65
2019-04-11T18:51:24.730Z,4.70
2019-04-11T18:53:54.716Z,4.74
2019-04-11T18:56:53.511Z,4.80
2019-04-11T18:59:22.278Z,4.70
2019-04-11T19:03:10.321Z,4.67
2019-04-11T19:09:32.581Z,4.62
2019-04-11T19:14:43.784Z,4.60
2019-04-11T19:17:25.824Z,4.57
2019-04-11T19:20:27.107Z,4.56
2019-04-11T19:24:41.910Z,4.57
2019-04-11T19:32:18.305Z,4.54
2019-04-11T19:38:38.131Z,4.47
2019-04-11T19:40:44.122Z,4.50
2019-04-11T19:43:13.280Z,4.42
2019-04-11T19:49:07.162Z,4.44
2019-04-11T19:55:17.584Z,4.47
2019-04-11T19:57:46.799Z,4.44
2019-04-11T20:09:41.998Z,4.43
2019-04-11T20:12:08.434Z,4.39
2019-04-11T20:14:56.290Z,4.38
2019-04-11T20:17:52.909Z,4.32
2019-04-11T20:20:20.919Z,4.32
2019-04-11T20:22:59.362Z,4.30
2019-04-11T20:25:22.645Z,4.34
2019-04-11T20:27:53.746Z,4.33
2019-04-11T20:30:25.420Z,4.39
2019-04-11T20:32:55.382Z,4.26
2019-04-11T20:35:29.001Z,4.26
2019-04-11T20:37:57.970Z,4.29
2019-04-11T20:40:28.037Z,4.34
2019-04-11T20:42:58.126Z,4.26
2019-04-11T20:48:48.272Z,4.23
2019-04-11T20:51:21.127Z,4.22
2019-04-11T20:54:23.524Z,4.18
2019-04-11T20:57:00.220Z,4.18
2019-04-11T20:59:34.871Z,4.18
2019-04-11T21:02:14.357Z,4.15
2019-04-11T21:11:09.108Z,4.19
2019-04-11T21:32:32.688Z,4.06
2019-04-11T21:35:31.026Z,3.99
2019-04-11T21:38:02.264Z,4.00
2019-04-11T21:40:35.602Z,4.01
2019-04-11T21:43:06.195Z,4.04
2019-04-11T21:45:36.461Z,4.00
2019-04-11T21:48:07.020Z,3.97
2019-04-11T21:50:40.409Z,3.90
2019-04-11T21:53:08.647Z,3.93
2019-04-11T21:55:38.613Z,3.94
2019-04-11T21:58:08.582Z,3.95
2019-04-11T22:00:42.063Z,3.93
2019-04-11T22:03:12.434Z,3.96
2019-04-11T22:05:42.504Z,3.94
2019-04-11T22:08:12.468Z,3.90
2019-04-11T22:10:42.443Z,3.92
2019-04-11T22:13:12.413Z,3.94
2019-04-11T22:15:43.164Z,3.95
2019-04-11T22:18:16.828Z,3.90
2019-04-11T22:20:45.791Z,3.94
2019-04-11T22:23:15.917Z,3.82
2019-04-11T22:25:45.879Z,3.85
2019-04-11T22:28:15.851Z,3.83
2019-04-11T22:30:46.526Z,3.82
2019-04-11T22:33:18.261Z,3.85
2019-04-11T22:35:48.244Z,3.87
2019-04-11T22:38:18.207Z,3.86
2019-04-11T22:40:48.172Z,3.91
2019-04-11T22:43:24.301Z,3.87
2019-04-11T22:45:50.001Z,3.76
2019-04-11T22:48:19.963Z,3.67
2019-04-11T22:50:50.033Z,3.71
2019-04-11T22:53:20.105Z,3.71
2019-04-11T22:55:50.075Z,3.76
2019-04-11T22:58:20.046Z,3.82
2019-04-11T23:00:51.627Z,3.89
2019-04-11T23:03:23.456Z,3.85
2019-04-11T23:05:53.437Z,3.83
2019-04-11T23:08:23.385Z,3.84
2019-04-11T23:10:53.378Z,3.81
2019-04-11T23:13:23.445Z,3.77
2019-04-11T23:15:54.452Z,3.77
2019-04-11T23:18:24.677Z,3.71
2019-04-11T23:20:56.050Z,3.72
2019-04-11T23:23:26.211Z,3.65
2019-04-11T23:25:56.193Z,3.79
2019-04-11T23:28:26.254Z,3.73
2019-04-11T23:30:56.331Z,3.80
2019-04-11T23:33:26.292Z,3.76
2019-04-11T23:35:56.290Z,3.76
2019-04-11T23:38:26.254Z,3.76
2019-04-11T23:40:56.246Z,3.73
2019-04-11T23:43:26.213Z,3.76
2019-04-11T23:45:56.296Z,3.70
2019-04-11T23:48:26.252Z,3.67
2019-04-11T23:50:56.236Z,3.73
2019-04-11T23:53:29.161Z,3.76
2019-04-11T23:55:59.985Z,3.78
2019-04-11T23:58:31.771Z,3.76
